createdAt,value
2022-12-24T00:00:38.724Z,99853.56
2022-12-24T00:03:05.455Z,99854.19
2022-12-24T00:05:32.059Z,99849.63
2022-12-24T00:07:58.607Z,99852.94
2022-12-24T00:10:25.177Z,99850.03
2022-12-24T00:12:51.719Z,99844.63
2022-12-24T00:15:18.292Z,99848.97
2022-12-24T00:17:44.824Z,99841.09
2022-12-24T00:20:11.530Z,99842.13
2022-12-24T00:22:38.221Z,99836.72
2022-12-24T00:25:05.130Z,99841.69
2022-12-24T00:27:31.681Z,99837.56
2022-12-24T00:29:58.234Z,99844.63
2022-12-24T00:32:24.790Z,99839.63
2022-12-24T00:34:51.347Z,99837.97
2022-12-24T00:37:17.878Z,99830.47
2022-12-24T00:39:44.431Z,99830.69
2022-12-24T00:42:10.974Z,99843.38
2022-12-24T00:44:37.516Z,99849.59
2022-12-24T00:47:08.378Z,99851.06
2022-12-24T00:49:38.593Z,99850.03
2022-12-24T00:52:05.458Z,99851.91
2022-12-24T00:54:31.992Z,99860.41
2022-12-24T00:56:58.647Z,99850.84
2022-12-24T00:59:25.235Z,99864.38
2022-12-24T01:01:51.979Z,99866.03
2022-12-24T01:04:37.392Z,99870.16
2022-12-24T01:07:04.093Z,99873.50
2022-12-24T01:09:30.670Z,99879.53
2022-12-24T01:11:57.203Z,99876.81
2022-12-24T01:14:23.776Z,99884.94
2022-12-24T01:16:50.385Z,99882.00
2022-12-24T01:19:16.931Z,99882.22
2022-12-24T01:21:43.485Z,99894.09
2022-12-24T01:24:15.440Z,99896.16
2022-12-24T01:26:43.298Z,99896.16
2022-12-24T01:29:09.844Z,99893.47
2022-12-24T01:31:36.454Z,99893.25
2022-12-24T01:34:03.411Z,99896.16
2022-12-24T01:36:29.970Z,99895.94
2022-12-24T01:38:56.558Z,99892.81
2022-12-24T01:41:42.807Z,99893.88
2022-12-24T01:44:21.102Z,99898.66
2022-12-24T01:46:49.996Z,99898.66
2022-12-24T01:49:17.593Z,99897.81
2022-12-24T01:51:54.675Z,99907.81
2022-12-24T01:54:28.915Z,99901.97
2022-12-24T01:57:01.273Z,99910.72
2022-12-24T01:59:29.506Z,99915.28
2022-12-24T02:01:56.401Z,99920.03
2022-12-24T02:04:54.855Z,99920.69
2022-12-24T02:07:21.727Z,99916.53
2022-12-24T02:09:51.348Z,99921.75
2022-12-24T02:12:17.936Z,99934.38
2022-12-24T02:14:44.521Z,99929.63
2022-12-24T02:17:26.325Z,99937.72
2022-12-24T02:20:20.125Z,99946.22
2022-12-24T02:23:11.639Z,99957.25
2022-12-24T02:26:10.453Z,99955.38
2022-12-24T02:29:07.749Z,99965.97
2022-12-24T02:32:14.926Z,99956.00
2022-12-24T02:35:17.429Z,99969.53
2022-12-24T02:37:53.547Z,99970.97
2022-12-24T02:40:27.577Z,99978.03
2022-12-24T02:42:58.590Z,99978.66
2022-12-24T02:45:34.453Z,99975.94
2022-12-24T02:48:01.259Z,99980.31
2022-12-24T02:50:28.489Z,99986.16
2022-12-24T02:52:55.144Z,99990.72
2022-12-24T02:55:23.575Z,99991.53
2022-12-24T02:58:17.915Z,99998.63
2022-12-24T03:01:35.207Z,100007.53
2022-12-24T03:04:19.921Z,100006.50
2022-12-24T03:06:49.478Z,100011.66
2022-12-24T03:09:19.656Z,100010.44
2022-12-24T03:11:55.262Z,100017.06
2022-12-24T03:14:23.457Z,100024.34
2022-12-24T03:16:50.385Z,100028.50
2022-12-24T03:19:17.567Z,100033.69
2022-12-24T03:21:46.593Z,100040.94
2022-12-24T03:24:13.172Z,100040.31
2022-12-24T03:26:40.875Z,100033.25
2022-12-24T03:29:08.487Z,100029.72
2022-12-24T03:31:46.100Z,100044.06
2022-12-24T03:34:13.947Z,100047.81
2022-12-24T03:36:40.662Z,100049.25
2022-12-24T03:39:07.714Z,100050.28
2022-12-24T03:41:34.290Z,100057.34
2022-12-24T03:44:01.251Z,100066.72
2022-12-24T03:46:28.220Z,100061.72
2022-12-24T03:48:55.063Z,100064.63
2022-12-24T03:51:24.586Z,100058.59
2022-12-24T03:53:56.842Z,100055.91
2022-12-24T03:56:24.123Z,100049.88
2022-12-24T03:58:50.998Z,100054.03
2022-12-24T04:01:18.276Z,100065.25
2022-12-24T04:03:45.222Z,100077.31
2022-12-24T04:06:14.709Z,100087.06
2022-12-24T04:08:41.857Z,100098.91
2022-12-24T04:11:10.816Z,100097.88
2022-12-24T04:13:37.684Z,100104.09
2022-12-24T04:16:08.437Z,100109.75
2022-12-24T04:18:36.284Z,100106.41
2022-12-24T04:21:03.161Z,100108.72
2022-12-24T04:23:34.674Z,100120.56
2022-12-24T04:26:02.442Z,100126.78
2022-12-24T04:28:30.674Z,100123.03
2022-12-24T04:31:01.587Z,100129.28
2022-12-24T04:33:28.537Z,100134.06
2022-12-24T04:35:57.879Z,100136.75
2022-12-24T04:38:24.627Z,100135.28
2022-12-24T04:41:03.495Z,100138.00
2022-12-24T04:43:30.454Z,100145.91
2022-12-24T04:45:57.493Z,100144.22
2022-12-24T04:48:24.088Z,100147.97
2022-12-24T04:50:50.834Z,100147.97
2022-12-24T04:53:17.393Z,100155.03
2022-12-24T04:55:45.579Z,100153.38
2022-12-24T04:58:13.554Z,100151.72
2022-12-24T05:00:40.984Z,100161.84
2022-12-24T05:03:07.842Z,100160.44
2022-12-24T05:05:34.411Z,100163.50
2022-12-24T05:08:00.982Z,100163.31
2022-12-24T05:10:27.619Z,100166.22
2022-12-24T05:12:54.158Z,100167.47
2022-12-24T05:15:20.747Z,100177.84
2022-12-24T05:17:47.315Z,100190.09
2022-12-24T05:20:14.035Z,100187.75
2022-12-24T05:22:59.101Z,100184.28
2022-12-24T05:25:45.941Z,100194.00
2022-12-24T05:28:12.495Z,100198.97
2022-12-24T05:30:39.085Z,100189.63
2022-12-24T05:33:05.712Z,100200.06
2022-12-24T05:35:32.494Z,100196.50
2022-12-24T05:37:59.076Z,100203.19
2022-12-24T05:40:25.899Z,100213.97
2022-12-24T05:42:52.574Z,100218.16
2022-12-24T05:45:19.146Z,100218.56
2022-12-24T05:47:45.726Z,100230.41
2022-12-24T05:50:12.829Z,100232.06
2022-12-24T05:52:39.404Z,100229.97
2022-12-24T05:55:06.461Z,100235.19
2022-12-24T05:57:33.015Z,100236.84
2022-12-24T05:59:59.574Z,100234.56
2022-12-24T06:02:26.220Z,100230.03
2022-12-24T06:04:52.919Z,100238.56
2022-12-24T06:07:21.958Z,100241.69
2022-12-24T06:09:51.900Z,100242.50
2022-12-24T06:12:21.116Z,100238.63
2022-12-24T06:14:48.313Z,100251.28
2022-12-24T06:17:15.535Z,100247.56
2022-12-24T06:19:42.433Z,100245.88
2022-12-24T06:22:09.037Z,100238.63
2022-12-24T06:24:35.610Z,100246.50
2022-12-24T06:27:02.214Z,100249.84
2022-12-24T06:29:28.776Z,100261.69
2022-12-24T06:31:55.439Z,100270.25
2022-12-24T06:34:22.086Z,100273.78
2022-12-24T06:36:48.718Z,100274.78
2022-12-24T06:39:15.280Z,100266.06
2022-12-24T06:41:41.859Z,100270.19
2022-12-24T06:44:09.063Z,100279.28
2022-12-24T06:46:35.775Z,100285.72
2022-12-24T06:49:02.430Z,100277.78
2022-12-24T06:51:28.988Z,100278.66
2022-12-24T06:53:55.554Z,100283.03
2022-12-24T06:56:22.176Z,100274.72
2022-12-24T06:58:49.048Z,100280.75
2022-12-24T07:01:17.973Z,100306.31
2022-12-24T07:03:45.398Z,100320.06
2022-12-24T07:06:26.946Z,100316.34
2022-12-24T07:08:53.925Z,100314.53
2022-12-24T07:11:21.503Z,100317.03
2022-12-24T07:13:48.387Z,100310.78
2022-12-24T07:16:15.520Z,100315.78
2022-12-24T07:18:42.200Z,100320.34
2022-12-24T07:21:09.089Z,100322.41
2022-12-24T07:23:42.552Z,100324.09
2022-12-24T07:26:13.303Z,100328.00
2022-12-24T07:28:40.328Z,100326.56
2022-12-24T07:31:06.988Z,100331.72
2022-12-24T07:33:34.666Z,100331.94
2022-12-24T07:36:05.790Z,100333.38
2022-12-24T07:38:36.071Z,100330.69
2022-12-24T07:41:02.791Z,100350.44
2022-12-24T07:43:29.501Z,100354.84
2022-12-24T07:45:57.678Z,100360.03
2022-12-24T07:48:26.018Z,100364.81
2022-12-24T07:50:53.197Z,100377.66
2022-12-24T07:53:20.252Z,100370.78
2022-12-24T07:55:46.851Z,100381.59
2022-12-24T07:58:13.436Z,100386.16
2022-12-24T08:00:40.011Z,100373.69
2022-12-24T08:03:06.684Z,100391.56
2022-12-24T08:05:36.889Z,100396.34
2022-12-24T08:08:03.709Z,100395.72
2022-12-24T08:10:30.246Z,100384.91
2022-12-24T08:12:56.842Z,100384.06
2022-12-24T08:15:23.476Z,100384.44
2022-12-24T08:17:50.125Z,100385.09
2022-12-24T08:20:17.363Z,100391.91
2022-12-24T08:22:43.950Z,100393.38
2022-12-24T08:25:10.622Z,100394.38
2022-12-24T08:27:37.220Z,100390.44
2022-12-24T08:30:05.330Z,100384.84
2022-12-24T08:32:31.957Z,100402.28
2022-12-24T08:34:58.548Z,100401.88
2022-12-24T08:37:25.115Z,100411.66
2022-12-24T08:39:51.717Z,100415.19
2022-12-24T08:42:18.564Z,100407.69
2022-12-24T08:44:45.190Z,100414.75
2022-12-24T08:47:11.767Z,100416.03
2022-12-24T08:49:39.564Z,100412.06
2022-12-24T08:52:06.631Z,100409.16
2022-12-24T08:54:33.233Z,100418.53
2022-12-24T08:56:59.849Z,100425.44
2022-12-24T08:59:26.438Z,100418.16
2022-12-24T09:01:53.245Z,100423.78
2022-12-24T09:04:20.280Z,100420.06
2022-12-24T09:06:46.896Z,100422.72
2022-12-24T09:09:13.614Z,100424.19
2022-12-24T09:11:40.218Z,100436.66
2022-12-24T09:14:06.779Z,100435.59
2022-12-24T09:16:33.485Z,100440.81
2022-12-24T09:19:00.058Z,100438.47
2022-12-24T09:21:26.653Z,100445.19
2022-12-24T09:23:53.244Z,100444.84
2022-12-24T09:26:24.031Z,100453.50
2022-12-24T09:28:52.306Z,100453.97
2022-12-24T09:31:19.208Z,100467.84
2022-12-24T09:33:48.057Z,100471.19
2022-12-24T09:36:14.864Z,100473.25
2022-12-24T09:38:41.397Z,100484.91
2022-12-24T09:41:52.865Z,100477.00
2022-12-24T09:44:36.787Z,100477.78
2022-12-24T09:47:13.038Z,100496.28
2022-12-24T09:49:45.192Z,100497.66
2022-12-24T09:52:16.969Z,100494.16
2022-12-24T09:54:51.932Z,100499.13
2022-12-24T09:57:28.648Z,100506.00
2022-12-24T09:59:55.631Z,100514.50
2022-12-24T10:02:22.822Z,100511.75
2022-12-24T10:04:49.690Z,100507.22
2022-12-24T10:07:41.821Z,100514.88
2022-12-24T10:10:26.490Z,100511.03
2022-12-24T10:13:28.855Z,100519.50
2022-12-24T10:16:22.630Z,100526.22
2022-12-24T10:19:10.601Z,100529.56
2022-12-24T10:21:58.672Z,100523.03
2022-12-24T10:24:50.136Z,100529.13
2022-12-24T10:27:21.674Z,100535.34
2022-12-24T10:29:52.943Z,100546.59
2022-12-24T10:32:26.618Z,100553.53
2022-12-24T10:35:04.422Z,100552.00
2022-12-24T10:37:31.573Z,100563.84
2022-12-24T10:40:00.306Z,100565.31
2022-12-24T10:42:38.410Z,100570.47
2022-12-24T10:45:07.775Z,100576.91
2022-12-24T10:47:37.420Z,100582.47
2022-12-24T10:50:39.517Z,100584.94
2022-12-24T10:53:18.784Z,100594.91
2022-12-24T10:55:47.850Z,100591.81
2022-12-24T10:58:19.845Z,100595.16
2022-12-24T11:00:54.161Z,100604.28
2022-12-24T11:03:30.199Z,100603.00
2022-12-24T11:06:07.804Z,100599.91
2022-12-24T11:08:35.968Z,100605.94
2022-12-24T11:11:16.957Z,100606.97
2022-12-24T11:13:46.812Z,100613.41
2022-12-24T11:16:25.525Z,100624.41
2022-12-24T11:18:55.104Z,100622.16
2022-12-24T11:21:29.371Z,100624.69
2022-12-24T11:24:07.440Z,100618.81
2022-12-24T11:26:34.428Z,100624.41
2022-12-24T11:29:21.985Z,100632.31
2022-12-24T11:31:49.802Z,100638.56
2022-12-24T11:34:31.492Z,100636.50
2022-12-24T11:37:15.421Z,100647.31
2022-12-24T11:39:48.243Z,100637.34
2022-12-24T11:42:41.028Z,100649.66
2022-12-24T11:45:21.020Z,100644.25
2022-12-24T11:47:47.617Z,100644.59
2022-12-24T11:50:37.491Z,100649.84
2022-12-24T11:53:12.037Z,100640.03
2022-12-24T11:55:59.462Z,100636.97
2022-12-24T11:58:47.952Z,100645.53
2022-12-24T12:01:26.119Z,100648.50
2022-12-24T12:04:00.918Z,100653.91
2022-12-24T12:06:27.489Z,100644.84
2022-12-24T12:09:02.632Z,100655.63
2022-12-24T12:11:30.982Z,100656.41
2022-12-24T12:14:00.691Z,100648.31
2022-12-24T12:16:57.301Z,100649.34
2022-12-24T12:19:26.117Z,100650.63
2022-12-24T12:21:52.976Z,100650.00
2022-12-24T12:24:36.987Z,100653.53
2022-12-24T12:27:15.665Z,100651.56
2022-12-24T12:29:47.937Z,100658.00
2022-12-24T12:32:27.051Z,100655.88
2022-12-24T12:35:13.226Z,100664.19
2022-12-24T12:37:44.814Z,100664.97
2022-12-24T12:40:16.095Z,100668.59
2022-12-24T12:43:01.269Z,100674.59
2022-12-24T12:45:39.370Z,100670.78
2022-12-24T12:48:22.881Z,100669.94
2022-12-24T12:51:01.293Z,100689.41
2022-12-24T12:53:27.785Z,100693.06
2022-12-24T12:56:24.012Z,100695.78
2022-12-24T12:59:29.824Z,100696.97
2022-12-24T13:01:59.167Z,100695.28
2022-12-24T13:04:53.079Z,100700.25
2022-12-24T13:07:38.400Z,100717.28
2022-12-24T13:10:22.838Z,100709.56
2022-12-24T13:13:20.351Z,100704.72
2022-12-24T13:16:15.772Z,100711.06
2022-12-24T13:18:48.025Z,100715.44
2022-12-24T13:21:23.872Z,100719.81
2022-12-24T13:23:50.864Z,100724.94
2022-12-24T13:26:18.640Z,100717.19
2022-12-24T13:28:45.213Z,100713.00
2022-12-24T13:31:11.772Z,100719.72
2022-12-24T13:33:38.303Z,100727.25
2022-12-24T13:36:19.200Z,100732.66
2022-12-24T13:38:48.753Z,100734.72
2022-12-24T13:41:38.668Z,100735.75
2022-12-24T13:44:15.350Z,100741.41
2022-12-24T13:46:51.015Z,100748.03
2022-12-24T13:49:26.847Z,100752.22
2022-12-24T13:52:11.606Z,100750.53
2022-12-24T13:54:42.366Z,100757.81
2022-12-24T13:57:39.739Z,100755.50
2022-12-24T14:00:22.103Z,100764.50
2022-12-24T14:03:11.870Z,100764.13
2022-12-24T14:05:38.391Z,100774.09
2022-12-24T14:08:14.367Z,100777.28
2022-12-24T14:10:45.738Z,100782.31
2022-12-24T14:13:39.922Z,100784.63
2022-12-24T14:16:18.808Z,100785.00
2022-12-24T14:19:13.917Z,100792.34
2022-12-24T14:22:14.468Z,100799.34
2022-12-24T14:24:50.344Z,100800.19
2022-12-24T14:27:39.686Z,100807.09
2022-12-24T14:30:20.055Z,100814.53
2022-12-24T14:32:48.258Z,100815.38
2022-12-24T14:35:30.157Z,100820.41
2022-12-24T14:38:12.666Z,100814.16
2022-12-24T14:41:05.744Z,100830.09
2022-12-24T14:44:18.782Z,100829.06
2022-12-24T14:46:54.084Z,100830.56
2022-12-24T14:49:57.672Z,100838.00
2022-12-24T14:53:04.664Z,100834.16
2022-12-24T14:55:41.555Z,100837.56
2022-12-24T14:58:31.624Z,100838.19
2022-12-24T15:01:18.004Z,100839.03
2022-12-24T15:03:44.961Z,100847.16
2022-12-24T15:06:14.334Z,100839.69
2022-12-24T15:08:46.961Z,100846.56
2022-12-24T15:11:19.439Z,100846.94
2022-12-24T15:13:49.416Z,100853.19
2022-12-24T15:16:24.517Z,100854.88
2022-12-24T15:18:57.092Z,100864.28
2022-12-24T15:21:31.227Z,100863.63
2022-12-24T15:23:58.253Z,100869.41
2022-12-24T15:26:35.047Z,100866.31
2022-12-24T15:29:03.679Z,100864.38
2022-12-24T15:31:31.443Z,100870.44
2022-12-24T15:33:59.496Z,100878.16
2022-12-24T15:36:33.690Z,100883.19
2022-12-24T15:39:08.570Z,100887.75
2022-12-24T15:42:01.388Z,100887.09
2022-12-24T15:44:33.671Z,100897.06
2022-12-24T15:47:01.728Z,100905.16
2022-12-24T15:49:31.120Z,100907.50
2022-12-24T15:52:11.607Z,100906.66
2022-12-24T15:54:45.026Z,100914.59
2022-12-24T15:57:25.157Z,100917.66
2022-12-24T15:59:57.191Z,100923.06
2022-12-24T16:02:42.967Z,100924.91
2022-12-24T16:05:25.983Z,100926.13
2022-12-24T16:08:14.316Z,100927.16
2022-12-24T16:11:05.923Z,100928.84
2022-12-24T16:13:44.050Z,100935.25
2022-12-24T16:16:16.069Z,100930.50
2022-12-24T16:18:55.964Z,100927.72
2022-12-24T16:21:34.166Z,100944.38
2022-12-24T16:24:15.944Z,100933.28
2022-12-24T16:26:42.667Z,100939.25
2022-12-24T16:29:11.765Z,100939.72
2022-12-24T16:31:45.266Z,100934.88
2022-12-24T16:34:17.324Z,100937.28
2022-12-24T16:36:47.215Z,100943.69
2022-12-24T16:39:24.730Z,100940.00
2022-12-24T16:42:10.516Z,100956.00
2022-12-24T16:44:37.452Z,100961.03
2022-12-24T16:47:06.471Z,100964.09
2022-12-24T16:49:37.125Z,100968.13
2022-12-24T16:52:05.329Z,100963.91
2022-12-24T16:54:31.920Z,100966.81
2022-12-24T16:56:58.587Z,100972.88
2022-12-24T16:59:25.453Z,100972.91
2022-12-24T17:01:52.091Z,100973.88
2022-12-24T17:04:19.285Z,100969.84
2022-12-24T17:06:48.462Z,100971.84
2022-12-24T17:09:15.110Z,100975.25
2022-12-24T17:11:41.659Z,100981.34
2022-12-24T17:14:12.450Z,100977.59
2022-12-24T17:16:43.032Z,100984.69
2022-12-24T17:19:09.610Z,100990.75
2022-12-24T17:21:36.511Z,100990.75
2022-12-24T17:24:03.283Z,100995.00
2022-12-24T17:26:29.995Z,100987.25
2022-12-24T17:28:57.048Z,100983.91
2022-12-24T17:31:24.579Z,100992.97
2022-12-24T17:33:52.790Z,100993.13
2022-12-24T17:36:20.739Z,100997.53
2022-12-24T17:38:47.314Z,100998.72
2022-12-24T17:41:16.429Z,100998.00
2022-12-24T17:43:43.583Z,101005.63
2022-12-24T17:46:13.303Z,101010.34
2022-12-24T17:48:39.910Z,101011.69
2022-12-24T17:51:11.961Z,101012.34
2022-12-24T17:53:40.880Z,101009.53
2022-12-24T17:56:10.544Z,101013.06
2022-12-24T17:58:37.189Z,101013.06
2022-12-24T18:01:04.086Z,101009.06
2022-12-24T18:03:31.017Z,101008.22
2022-12-24T18:06:05.539Z,101025.91
2022-12-24T18:08:32.336Z,101022.56
2022-12-24T18:10:59.046Z,101018.66
2022-12-24T18:13:25.634Z,101026.56
2022-12-24T18:15:52.408Z,101031.97
2022-12-24T18:18:18.999Z,101010.03
2022-12-24T18:20:47.024Z,101041.41
2022-12-24T18:23:13.929Z,101045.22
2022-12-24T18:25:42.528Z,101047.47
2022-12-24T18:28:09.098Z,101049.31
2022-12-24T18:30:35.713Z,101051.84
2022-12-24T18:33:02.320Z,101059.28
2022-12-24T18:35:28.988Z,101063.97
2022-12-24T18:37:55.591Z,101062.28
2022-12-24T18:40:22.146Z,101070.38
2022-12-24T18:42:48.710Z,101063.78
2022-12-24T18:45:15.277Z,101069.19
2022-12-24T18:47:41.886Z,101075.59
2022-12-24T18:50:08.812Z,101077.47
2022-12-24T18:52:35.475Z,101076.63
2022-12-24T18:55:03.365Z,101082.69
2022-12-24T18:57:30.758Z,101090.78
2022-12-24T18:59:57.340Z,101085.56
2022-12-24T19:02:24.053Z,101097.94
2022-12-24T19:04:50.835Z,101100.94
2022-12-24T19:07:17.510Z,101094.69
2022-12-24T19:09:47.828Z,101100.75
2022-12-24T19:12:15.478Z,101099.06
2022-12-24T19:14:42.267Z,101107.19
2022-12-24T19:17:08.915Z,101114.25
2022-12-24T19:19:35.493Z,101115.97
2022-12-24T19:22:02.098Z,101112.59
2022-12-24T19:24:28.677Z,101114.25
2022-12-24T19:26:55.207Z,101108.19
2022-12-24T19:29:21.926Z,101112.59
2022-12-24T19:31:48.549Z,101113.59
2022-12-24T19:34:15.171Z,101124.91
2022-12-24T19:36:41.879Z,101125.06
2022-12-24T19:39:08.508Z,101125.44
2022-12-24T19:41:35.153Z,101118.34
2022-12-24T19:44:02.516Z,101114.63
2022-12-24T19:46:31.813Z,101119.84
2022-12-24T19:49:01.722Z,101129.63
2022-12-24T19:51:29.454Z,101127.78
2022-12-24T19:53:57.563Z,101138.56
2022-12-24T19:56:25.739Z,101133.16
2022-12-24T19:58:52.519Z,101143.13
2022-12-24T20:01:22.237Z,101135.88
2022-12-24T20:03:50.420Z,101155.63
2022-12-24T20:06:19.388Z,101154.78
2022-12-24T20:08:46.683Z,101162.72
2022-12-24T20:11:16.022Z,101170.84
2022-12-24T20:13:43.318Z,101159.34
2022-12-24T20:16:16.518Z,101155.63
2022-12-24T20:18:43.685Z,101152.47
2022-12-24T20:21:12.353Z,101161.75
2022-12-24T20:23:42.484Z,101159.41
2022-12-24T20:26:13.488Z,101156.72
2022-12-24T20:28:40.302Z,101156.53
2022-12-24T20:31:27.644Z,101158.41
2022-12-24T20:33:55.836Z,101157.06
2022-12-24T20:36:23.858Z,101153.03
2022-12-24T20:38:50.712Z,101152.88
2022-12-24T20:41:19.591Z,101150.16
2022-12-24T20:43:48.685Z,101150.31
2022-12-24T20:46:16.959Z,101157.41
2022-12-24T20:48:43.970Z,101160.09
2022-12-24T20:51:24.443Z,101153.84
2022-12-24T20:53:53.838Z,101154.88
2022-12-24T20:56:20.957Z,101160.59
2022-12-24T20:58:47.800Z,101162.66
2022-12-24T21:01:18.002Z,101162.47
2022-12-24T21:03:45.277Z,101166.53
2022-12-24T21:06:12.691Z,101160.78
2022-12-24T21:08:39.432Z,101166.84
2022-12-24T21:11:24.658Z,101172.44
2022-12-24T21:13:51.332Z,101174.94
2022-12-24T21:16:17.951Z,101174.13
2022-12-24T21:18:44.615Z,101182.38
2022-12-24T21:21:11.368Z,101173.59
2022-12-24T21:23:37.917Z,101185.91
2022-12-24T21:26:05.020Z,101181.50
2022-12-24T21:28:32.574Z,101186.06
2022-12-24T21:30:59.988Z,101183.22
2022-12-24T21:33:26.896Z,101188.75
2022-12-24T21:35:59.925Z,101196.88
2022-12-24T21:38:27.029Z,101200.09
2022-12-24T21:41:08.863Z,101195.03
2022-12-24T21:43:36.714Z,101202.28
2022-12-24T21:46:08.968Z,101209.22
2022-12-24T21:48:55.281Z,101210.56
2022-12-24T21:51:24.126Z,101202.13
2022-12-24T21:54:09.553Z,101202.81
2022-12-24T21:56:56.067Z,101210.56
2022-12-24T21:59:26.790Z,101217.66
2022-12-24T22:01:54.435Z,101231.34
2022-12-24T22:04:21.160Z,101231.81
2022-12-24T22:07:06.277Z,101242.47
2022-12-24T22:09:51.634Z,101241.97
2022-12-24T22:12:18.778Z,101241.31
2022-12-24T22:14:45.499Z,101249.91
2022-12-24T22:17:12.168Z,101240.59
2022-12-24T22:19:38.736Z,101244.00
2022-12-24T22:22:05.383Z,101240.97
2022-12-24T22:24:32.066Z,101245.84
2022-12-24T22:26:58.633Z,101247.38
2022-12-24T22:29:25.211Z,101254.47
2022-12-24T22:31:51.766Z,101255.31
2022-12-24T22:34:18.321Z,101259.03
2022-12-24T22:36:44.871Z,101261.88
2022-12-24T22:39:11.533Z,101260.69
2022-12-24T22:41:38.160Z,101263.91
2022-12-24T22:44:04.754Z,101264.56
2022-12-24T22:46:31.386Z,101266.25
2022-12-24T22:48:58.043Z,101267.28
2022-12-24T22:51:24.653Z,101273.69
2022-12-24T22:53:51.384Z,101273.50
2022-12-24T22:56:22.351Z,101275.03
2022-12-24T22:58:56.037Z,101279.75
2022-12-24T23:01:52.850Z,101283.47
2022-12-24T23:04:19.636Z,101286.53
2022-12-24T23:06:46.219Z,101294.63
2022-12-24T23:09:15.900Z,101295.31
2022-12-24T23:11:43.686Z,101292.94
2022-12-24T23:14:38.012Z,101301.53
2022-12-24T23:17:06.150Z,101306.59
2022-12-24T23:19:33.608Z,101309.81
2022-12-24T23:22:01.776Z,101300.03
2022-12-24T23:24:29.187Z,101298.00
2022-12-24T23:26:56.316Z,101294.47
2022-12-24T23:29:22.884Z,101303.59
2022-12-24T23:31:49.418Z,101303.91
2022-12-24T23:34:15.992Z,101303.72
2022-12-24T23:36:42.548Z,101301.91
2022-12-24T23:39:09.183Z,101308.16
2022-12-24T23:41:35.751Z,101302.75
2022-12-24T23:44:02.394Z,101308.16
2022-12-24T23:46:30.238Z,101308.97
2022-12-24T23:48:57.319Z,101304.59
2022-12-24T23:51:26.609Z,101297.47
2022-12-24T23:53:55.378Z,101296.97
2022-12-24T23:56:24.069Z,101296.97
2022-12-24T23:58:51.825Z,101296.25
